sensor_id;sensor_type;location;lat;lon;timestamp;P1;durP1;ratioP1;P2;durP2;ratioP2
69534;SDS011;56754;51.568;5.048;2024-03-06T00:00:18;12.47;;;7.93;;
69534;SDS011;56754;51.568;5.048;2024-03-06T00:02:43;11.83;;;7.60;;
69534;SDS011;56754;51.568;5.048;2024-03-06T00:05:09;11.73;;;7.60;;
69534;SDS011;56754;51.568;5.048;2024-03-06T00:07:34;13.55;;;8.00;;
69534;SDS011;56754;51.568;5.048;2024-03-06T00:09:59;12.53;;;8.03;;
69534;SDS011;56754;51.568;5.048;2024-03-06T00:12:25;13.63;;;8.50;;
69534;SDS011;56754;51.568;5.048;2024-03-06T00:14:50;12.83;;;7.93;;
69534;SDS011;56754;51.568;5.048;2024-03-06T00:17:15;13.90;;;8.23;;
69534;SDS011;56754;51.568;5.048;2024-03-06T00:19:41;13.90;;;8.40;;
69534;SDS011;56754;51.568;5.048;2024-03-06T00:22:06;13.43;;;7.95;;
69534;SDS011;56754;51.568;5.048;2024-03-06T00:24:32;13.00;;;8.10;;
69534;SDS011;56754;51.568;5.048;2024-03-06T00:26:57;12.32;;;7.85;;
69534;SDS011;56754;51.568;5.048;2024-03-06T00:29:23;12.57;;;8.27;;
69534;SDS011;56754;51.568;5.048;2024-03-06T00:31:48;13.13;;;8.10;;
69534;SDS011;56754;51.568;5.048;2024-03-06T00:34:13;13.57;;;8.40;;
69534;SDS011;56754;51.568;5.048;2024-03-06T00:36:42;12.67;;;7.53;;
69534;SDS011;56754;51.568;5.048;2024-03-06T00:39:08;12.63;;;8.07;;
69534;SDS011;56754;51.568;5.048;2024-03-06T00:41:36;12.40;;;8.03;;
69534;SDS011;56754;51.568;5.048;2024-03-06T00:44:02;13.20;;;8.20;;
69534;SDS011;56754;51.568;5.048;2024-03-06T00:46:28;14.85;;;8.40;;
69534;SDS011;56754;51.568;5.048;2024-03-06T00:48:53;12.60;;;7.90;;
69534;SDS011;56754;51.568;5.048;2024-03-06T00:51:18;11.80;;;7.50;;
69534;SDS011;56754;51.568;5.048;2024-03-06T00:53:44;11.57;;;7.77;;
69534;SDS011;56754;51.568;5.048;2024-03-06T00:56:09;13.70;;;8.30;;
69534;SDS011;56754;51.568;5.048;2024-03-06T00:58:35;13.70;;;8.80;;
69534;SDS011;56754;51.568;5.048;2024-03-06T01:01:00;13.30;;;8.43;;
69534;SDS011;56754;51.568;5.048;2024-03-06T01:03:25;14.00;;;8.57;;
69534;SDS011;56754;51.568;5.048;2024-03-06T01:05:51;14.03;;;8.73;;
69534;SDS011;56754;51.568;5.048;2024-03-06T01:08:16;13.75;;;8.30;;
69534;SDS011;56754;51.568;5.048;2024-03-06T01:10:41;12.77;;;8.00;;
69534;SDS011;56754;51.568;5.048;2024-03-06T01:13:07;12.43;;;8.13;;
69534;SDS011;56754;51.568;5.048;2024-03-06T01:15:32;13.03;;;8.07;;
69534;SDS011;56754;51.568;5.048;2024-03-06T01:17:57;14.03;;;8.53;;
69534;SDS011;56754;51.568;5.048;2024-03-06T01:20:22;12.73;;;8.33;;
69534;SDS011;56754;51.568;5.048;2024-03-06T01:22:48;12.53;;;8.17;;
69534;SDS011;56754;51.568;5.048;2024-03-06T01:25:13;13.07;;;8.20;;
69534;SDS011;56754;51.568;5.048;2024-03-06T01:27:38;11.77;;;7.67;;
69534;SDS011;56754;51.568;5.048;2024-03-06T01:30:04;13.30;;;8.38;;
69534;SDS011;56754;51.568;5.048;2024-03-06T01:32:32;13.50;;;8.37;;
69534;SDS011;56754;51.568;5.048;2024-03-06T01:34:57;13.88;;;8.27;;
69534;SDS011;56754;51.568;5.048;2024-03-06T01:37:23;12.73;;;7.90;;
69534;SDS011;56754;51.568;5.048;2024-03-06T01:39:48;13.57;;;8.23;;
69534;SDS011;56754;51.568;5.048;2024-03-06T01:42:16;14.57;;;8.23;;
69534;SDS011;56754;51.568;5.048;2024-03-06T01:44:41;12.57;;;8.23;;
69534;SDS011;56754;51.568;5.048;2024-03-06T01:47:07;14.87;;;8.43;;
69534;SDS011;56754;51.568;5.048;2024-03-06T01:49:32;12.70;;;7.37;;
69534;SDS011;56754;51.568;5.048;2024-03-06T01:51:58;13.10;;;8.70;;
69534;SDS011;56754;51.568;5.048;2024-03-06T01:54:24;12.20;;;8.00;;
69534;SDS011;56754;51.568;5.048;2024-03-06T01:56:50;12.20;;;7.87;;
69534;SDS011;56754;51.568;5.048;2024-03-06T01:59:16;13.00;;;7.95;;
69534;SDS011;56754;51.568;5.048;2024-03-06T02:01:45;12.45;;;8.50;;
69534;SDS011;56754;51.568;5.048;2024-03-06T02:04:11;13.37;;;8.33;;
69534;SDS011;56754;51.568;5.048;2024-03-06T02:06:40;13.55;;;8.65;;
69534;SDS011;56754;51.568;5.048;2024-03-06T02:09:07;12.68;;;8.18;;
69534;SDS011;56754;51.568;5.048;2024-03-06T02:11:33;14.77;;;8.37;;
69534;SDS011;56754;51.568;5.048;2024-03-06T02:13:58;14.02;;;8.18;;
69534;SDS011;56754;51.568;5.048;2024-03-06T02:16:24;11.70;;;7.13;;
69534;SDS011;56754;51.568;5.048;2024-03-06T02:18:59;12.90;;;8.10;;
69534;SDS011;56754;51.568;5.048;2024-03-06T02:21:24;13.15;;;8.35;;
69534;SDS011;56754;51.568;5.048;2024-03-06T02:23:50;13.23;;;8.27;;
69534;SDS011;56754;51.568;5.048;2024-03-06T02:26:16;12.23;;;7.70;;
69534;SDS011;56754;51.568;5.048;2024-03-06T02:28:47;12.33;;;8.40;;
69534;SDS011;56754;51.568;5.048;2024-03-06T02:31:13;13.57;;;8.18;;
69534;SDS011;56754;51.568;5.048;2024-03-06T02:33:38;13.13;;;8.10;;
69534;SDS011;56754;51.568;5.048;2024-03-06T02:36:04;13.30;;;8.73;;
69534;SDS011;56754;51.568;5.048;2024-03-06T02:38:29;13.25;;;8.35;;
69534;SDS011;56754;51.568;5.048;2024-03-06T02:40:55;13.90;;;8.87;;
69534;SDS011;56754;51.568;5.048;2024-03-06T02:43:21;13.77;;;8.13;;
69534;SDS011;56754;51.568;5.048;2024-03-06T02:45:46;13.38;;;8.20;;
69534;SDS011;56754;51.568;5.048;2024-03-06T02:48:12;11.93;;;7.40;;
69534;SDS011;56754;51.568;5.048;2024-03-06T02:50:37;11.57;;;7.10;;
69534;SDS011;56754;51.568;5.048;2024-03-06T02:53:02;12.40;;;7.87;;
69534;SDS011;56754;51.568;5.048;2024-03-06T02:55:28;12.57;;;7.57;;
69534;SDS011;56754;51.568;5.048;2024-03-06T02:57:53;12.27;;;7.53;;
69534;SDS011;56754;51.568;5.048;2024-03-06T03:00:18;12.37;;;7.40;;
69534;SDS011;56754;51.568;5.048;2024-03-06T03:02:44;12.43;;;7.33;;
69534;SDS011;56754;51.568;5.048;2024-03-06T03:05:09;14.03;;;8.40;;
69534;SDS011;56754;51.568;5.048;2024-03-06T03:07:34;13.10;;;7.90;;
69534;SDS011;56754;51.568;5.048;2024-03-06T03:10:00;12.87;;;8.20;;
69534;SDS011;56754;51.568;5.048;2024-03-06T03:12:25;13.13;;;7.55;;
69534;SDS011;56754;51.568;5.048;2024-03-06T03:14:50;12.30;;;7.70;;
69534;SDS011;56754;51.568;5.048;2024-03-06T03:17:18;14.17;;;8.27;;
69534;SDS011;56754;51.568;5.048;2024-03-06T03:19:44;13.25;;;7.95;;
69534;SDS011;56754;51.568;5.048;2024-03-06T03:22:09;12.27;;;7.73;;
69534;SDS011;56754;51.568;5.048;2024-03-06T03:24:34;12.70;;;8.20;;
69534;SDS011;56754;51.568;5.048;2024-03-06T03:26:59;13.47;;;8.37;;
69534;SDS011;56754;51.568;5.048;2024-03-06T03:29:25;13.00;;;8.30;;
69534;SDS011;56754;51.568;5.048;2024-03-06T03:31:50;13.07;;;7.60;;
69534;SDS011;56754;51.568;5.048;2024-03-06T03:34:15;13.70;;;8.40;;
69534;SDS011;56754;51.568;5.048;2024-03-06T03:36:41;14.97;;;7.70;;
69534;SDS011;56754;51.568;5.048;2024-03-06T03:39:07;14.20;;;7.90;;
69534;SDS011;56754;51.568;5.048;2024-03-06T03:41:32;13.40;;;8.10;;
69534;SDS011;56754;51.568;5.048;2024-03-06T03:43:57;13.77;;;8.47;;
69534;SDS011;56754;51.568;5.048;2024-03-06T03:46:22;13.93;;;8.30;;
69534;SDS011;56754;51.568;5.048;2024-03-06T03:48:48;15.37;;;8.00;;
69534;SDS011;56754;51.568;5.048;2024-03-06T03:51:13;13.20;;;8.00;;
69534;SDS011;56754;51.568;5.048;2024-03-06T03:53:38;13.43;;;8.17;;
69534;SDS011;56754;51.568;5.048;2024-03-06T03:56:04;12.70;;;7.80;;
69534;SDS011;56754;51.568;5.048;2024-03-06T03:58:29;12.95;;;7.55;;
69534;SDS011;56754;51.568;5.048;2024-03-06T04:00:54;13.63;;;8.80;;
69534;SDS011;56754;51.568;5.048;2024-03-06T04:03:20;14.30;;;8.43;;
69534;SDS011;56754;51.568;5.048;2024-03-06T04:05:46;13.33;;;8.07;;
69534;SDS011;56754;51.568;5.048;2024-03-06T04:08:12;13.68;;;8.05;;
69534;SDS011;56754;51.568;5.048;2024-03-06T04:10:37;13.57;;;8.53;;
69534;SDS011;56754;51.568;5.048;2024-03-06T04:13:02;13.13;;;7.90;;
69534;SDS011;56754;51.568;5.048;2024-03-06T04:15:28;13.63;;;8.33;;
69534;SDS011;56754;51.568;5.048;2024-03-06T04:17:53;14.10;;;8.32;;
69534;SDS011;56754;51.568;5.048;2024-03-06T04:20:18;13.63;;;8.37;;
69534;SDS011;56754;51.568;5.048;2024-03-06T04:22:44;14.40;;;8.30;;
69534;SDS011;56754;51.568;5.048;2024-03-06T04:25:09;13.00;;;7.90;;
69534;SDS011;56754;51.568;5.048;2024-03-06T04:27:34;12.17;;;7.93;;
69534;SDS011;56754;51.568;5.048;2024-03-06T04:30:00;13.00;;;8.57;;
69534;SDS011;56754;51.568;5.048;2024-03-06T04:32:25;14.07;;;8.30;;
69534;SDS011;56754;51.568;5.048;2024-03-06T04:34:50;14.00;;;8.27;;
69534;SDS011;56754;51.568;5.048;2024-03-06T04:37:16;12.97;;;8.50;;
69534;SDS011;56754;51.568;5.048;2024-03-06T04:39:41;13.20;;;8.10;;
69534;SDS011;56754;51.568;5.048;2024-03-06T04:42:06;13.77;;;8.83;;
69534;SDS011;56754;51.568;5.048;2024-03-06T04:44:36;14.17;;;8.90;;
69534;SDS011;56754;51.568;5.048;2024-03-06T04:47:01;12.55;;;8.38;;
69534;SDS011;56754;51.568;5.048;2024-03-06T04:49:26;14.53;;;8.43;;
69534;SDS011;56754;51.568;5.048;2024-03-06T04:51:52;12.65;;;8.07;;
69534;SDS011;56754;51.568;5.048;2024-03-06T04:54:17;16.47;;;9.20;;
69534;SDS011;56754;51.568;5.048;2024-03-06T04:56:42;13.10;;;7.97;;
69534;SDS011;56754;51.568;5.048;2024-03-06T04:59:08;14.93;;;8.30;;
69534;SDS011;56754;51.568;5.048;2024-03-06T05:01:33;15.67;;;9.30;;
69534;SDS011;56754;51.568;5.048;2024-03-06T05:03:58;13.97;;;8.87;;
69534;SDS011;56754;51.568;5.048;2024-03-06T05:06:24;13.20;;;8.50;;
69534;SDS011;56754;51.568;5.048;2024-03-06T05:08:49;14.32;;;8.82;;
69534;SDS011;56754;51.568;5.048;2024-03-06T05:11:15;13.27;;;8.47;;
69534;SDS011;56754;51.568;5.048;2024-03-06T05:13:40;12.70;;;8.53;;
69534;SDS011;56754;51.568;5.048;2024-03-06T05:16:06;12.23;;;7.80;;
69534;SDS011;56754;51.568;5.048;2024-03-06T05:18:31;14.63;;;8.80;;
69534;SDS011;56754;51.568;5.048;2024-03-06T05:20:57;11.77;;;8.27;;
69534;SDS011;56754;51.568;5.048;2024-03-06T05:23:22;13.43;;;8.43;;
69534;SDS011;56754;51.568;5.048;2024-03-06T05:25:47;14.02;;;8.68;;
69534;SDS011;56754;51.568;5.048;2024-03-06T05:28:12;13.20;;;8.40;;
69534;SDS011;56754;51.568;5.048;2024-03-06T05:30:38;12.40;;;7.80;;
69534;SDS011;56754;51.568;5.048;2024-03-06T05:33:03;12.03;;;7.93;;
69534;SDS011;56754;51.568;5.048;2024-03-06T05:35:28;12.80;;;8.00;;
69534;SDS011;56754;51.568;5.048;2024-03-06T05:37:54;13.53;;;8.60;;
69534;SDS011;56754;51.568;5.048;2024-03-06T05:40:19;13.07;;;8.57;;
69534;SDS011;56754;51.568;5.048;2024-03-06T05:42:44;13.50;;;8.23;;
69534;SDS011;56754;51.568;5.048;2024-03-06T05:45:10;12.35;;;7.82;;
69534;SDS011;56754;51.568;5.048;2024-03-06T05:47:35;13.83;;;8.10;;
69534;SDS011;56754;51.568;5.048;2024-03-06T05:50:03;13.18;;;8.40;;
69534;SDS011;56754;51.568;5.048;2024-03-06T05:52:30;11.57;;;7.77;;
69534;SDS011;56754;51.568;5.048;2024-03-06T05:54:56;12.75;;;8.60;;
69534;SDS011;56754;51.568;5.048;2024-03-06T05:57:22;12.43;;;7.70;;
69534;SDS011;56754;51.568;5.048;2024-03-06T05:59:47;12.00;;;7.60;;
69534;SDS011;56754;51.568;5.048;2024-03-06T06:02:12;12.07;;;8.10;;
69534;SDS011;56754;51.568;5.048;2024-03-06T06:04:38;11.77;;;7.40;;
69534;SDS011;56754;51.568;5.048;2024-03-06T06:07:03;12.00;;;7.67;;
69534;SDS011;56754;51.568;5.048;2024-03-06T06:09:29;12.70;;;7.80;;
69534;SDS011;56754;51.568;5.048;2024-03-06T06:11:54;11.90;;;7.63;;
69534;SDS011;56754;51.568;5.048;2024-03-06T06:14:19;11.67;;;7.63;;
69534;SDS011;56754;51.568;5.048;2024-03-06T06:16:44;12.40;;;7.80;;
69534;SDS011;56754;51.568;5.048;2024-03-06T06:19:10;11.47;;;7.50;;
69534;SDS011;56754;51.568;5.048;2024-03-06T06:21:35;12.90;;;8.00;;
69534;SDS011;56754;51.568;5.048;2024-03-06T06:24:01;11.30;;;7.18;;
69534;SDS011;56754;51.568;5.048;2024-03-06T06:26:27;12.93;;;7.57;;
69534;SDS011;56754;51.568;5.048;2024-03-06T06:28:52;12.90;;;7.82;;
69534;SDS011;56754;51.568;5.048;2024-03-06T06:31:17;12.33;;;7.73;;
69534;SDS011;56754;51.568;5.048;2024-03-06T06:33:43;11.43;;;7.67;;
69534;SDS011;56754;51.568;5.048;2024-03-06T06:36:08;11.30;;;7.20;;
69534;SDS011;56754;51.568;5.048;2024-03-06T06:38:33;13.63;;;7.47;;
69534;SDS011;56754;51.568;5.048;2024-03-06T06:40:58;12.77;;;7.43;;
69534;SDS011;56754;51.568;5.048;2024-03-06T06:43:24;12.35;;;7.05;;
69534;SDS011;56754;51.568;5.048;2024-03-06T06:45:49;11.50;;;7.10;;
69534;SDS011;56754;51.568;5.048;2024-03-06T06:48:14;12.80;;;7.43;;
69534;SDS011;56754;51.568;5.048;2024-03-06T06:50:40;12.03;;;7.03;;
69534;SDS011;56754;51.568;5.048;2024-03-06T06:53:05;10.73;;;7.00;;
69534;SDS011;56754;51.568;5.048;2024-03-06T06:55:30;11.53;;;6.90;;
69534;SDS011;56754;51.568;5.048;2024-03-06T06:57:56;11.13;;;7.40;;
69534;SDS011;56754;51.568;5.048;2024-03-06T07:00:21;14.10;;;7.40;;
69534;SDS011;56754;51.568;5.048;2024-03-06T07:02:47;11.63;;;7.40;;
69534;SDS011;56754;51.568;5.048;2024-03-06T07:05:12;12.83;;;7.97;;
69534;SDS011;56754;51.568;5.048;2024-03-06T07:07:38;12.48;;;7.20;;
69534;SDS011;56754;51.568;5.048;2024-03-06T07:10:04;10.87;;;6.97;;
69534;SDS011;56754;51.568;5.048;2024-03-06T07:12:30;12.48;;;7.05;;
69534;SDS011;56754;51.568;5.048;2024-03-06T07:14:56;11.13;;;6.63;;
69534;SDS011;56754;51.568;5.048;2024-03-06T07:17:22;11.27;;;7.35;;
69534;SDS011;56754;51.568;5.048;2024-03-06T07:19:47;11.73;;;6.57;;
69534;SDS011;56754;51.568;5.048;2024-03-06T07:22:12;11.17;;;7.03;;
69534;SDS011;56754;51.568;5.048;2024-03-06T07:24:37;12.17;;;6.83;;
69534;SDS011;56754;51.568;5.048;2024-03-06T07:27:03;11.73;;;6.83;;
69534;SDS011;56754;51.568;5.048;2024-03-06T07:29:28;10.97;;;6.97;;
69534;SDS011;56754;51.568;5.048;2024-03-06T07:31:54;11.10;;;6.40;;
69534;SDS011;56754;51.568;5.048;2024-03-06T07:34:19;14.03;;;7.33;;
69534;SDS011;56754;51.568;5.048;2024-03-06T07:36:45;11.55;;;7.25;;
69534;SDS011;56754;51.568;5.048;2024-03-06T07:39:10;11.50;;;6.60;;
69534;SDS011;56754;51.568;5.048;2024-03-06T07:41:35;12.50;;;6.97;;
69534;SDS011;56754;51.568;5.048;2024-03-06T07:44:01;11.63;;;7.03;;
69534;SDS011;56754;51.568;5.048;2024-03-06T07:46:26;11.13;;;6.97;;
69534;SDS011;56754;51.568;5.048;2024-03-06T07:48:51;10.88;;;6.75;;
69534;SDS011;56754;51.568;5.048;2024-03-06T07:51:17;11.00;;;6.90;;
69534;SDS011;56754;51.568;5.048;2024-03-06T07:53:43;11.47;;;6.67;;
69534;SDS011;56754;51.568;5.048;2024-03-06T07:56:11;10.43;;;6.43;;
69534;SDS011;56754;51.568;5.048;2024-03-06T07:58:36;11.13;;;6.70;;
69534;SDS011;56754;51.568;5.048;2024-03-06T08:01:01;10.98;;;7.00;;
69534;SDS011;56754;51.568;5.048;2024-03-06T08:03:27;10.50;;;6.20;;
69534;SDS011;56754;51.568;5.048;2024-03-06T08:05:52;11.23;;;7.03;;
69534;SDS011;56754;51.568;5.048;2024-03-06T08:08:18;10.37;;;7.00;;
69534;SDS011;56754;51.568;5.048;2024-03-06T08:10:43;12.20;;;7.17;;
69534;SDS011;56754;51.568;5.048;2024-03-06T08:13:08;12.15;;;6.72;;
69534;SDS011;56754;51.568;5.048;2024-03-06T08:15:34;13.70;;;6.20;;
69534;SDS011;56754;51.568;5.048;2024-03-06T08:17:59;10.37;;;5.90;;
69534;SDS011;56754;51.568;5.048;2024-03-06T08:20:24;9.23;;;5.77;;
69534;SDS011;56754;51.568;5.048;2024-03-06T08:22:50;10.33;;;5.90;;
69534;SDS011;56754;51.568;5.048;2024-03-06T08:25:15;9.60;;;5.70;;
69534;SDS011;56754;51.568;5.048;2024-03-06T08:27:40;10.60;;;5.85;;
69534;SDS011;56754;51.568;5.048;2024-03-06T08:30:07;9.80;;;5.27;;
69534;SDS011;56754;51.568;5.048;2024-03-06T08:32:33;10.35;;;5.70;;
69534;SDS011;56754;51.568;5.048;2024-03-06T08:34:59;8.98;;;5.50;;
69534;SDS011;56754;51.568;5.048;2024-03-06T08:37:28;10.70;;;5.90;;
69534;SDS011;56754;51.568;5.048;2024-03-06T08:39:53;10.23;;;6.10;;
69534;SDS011;56754;51.568;5.048;2024-03-06T08:42:18;10.03;;;5.87;;
69534;SDS011;56754;51.568;5.048;2024-03-06T08:44:47;10.00;;;5.87;;
69534;SDS011;56754;51.568;5.048;2024-03-06T08:47:12;9.30;;;5.38;;
69534;SDS011;56754;51.568;5.048;2024-03-06T08:49:37;10.83;;;6.07;;
69534;SDS011;56754;51.568;5.048;2024-03-06T08:52:03;11.50;;;6.03;;
69534;SDS011;56754;51.568;5.048;2024-03-06T08:54:37;11.50;;;5.93;;
69534;SDS011;56754;51.568;5.048;2024-03-06T08:57:03;11.50;;;6.05;;
69534;SDS011;56754;51.568;5.048;2024-03-06T08:59:29;10.70;;;6.00;;
69534;SDS011;56754;51.568;5.048;2024-03-06T09:01:55;10.07;;;6.10;;
69534;SDS011;56754;51.568;5.048;2024-03-06T09:04:20;10.13;;;6.03;;
69534;SDS011;56754;51.568;5.048;2024-03-06T09:06:46;11.53;;;6.00;;
69534;SDS011;56754;51.568;5.048;2024-03-06T09:09:11;11.43;;;6.37;;
69534;SDS011;56754;51.568;5.048;2024-03-06T09:11:36;9.13;;;5.63;;
69534;SDS011;56754;51.568;5.048;2024-03-06T09:14:02;10.07;;;5.67;;
69534;SDS011;56754;51.568;5.048;2024-03-06T09:16:27;11.10;;;5.80;;
69534;SDS011;56754;51.568;5.048;2024-03-06T09:18:52;10.30;;;5.50;;
69534;SDS011;56754;51.568;5.048;2024-03-06T09:21:18;9.80;;;5.33;;
69534;SDS011;56754;51.568;5.048;2024-03-06T09:23:43;9.50;;;4.90;;
69534;SDS011;56754;51.568;5.048;2024-03-06T09:26:08;7.70;;;4.60;;
69534;SDS011;56754;51.568;5.048;2024-03-06T09:28:34;9.37;;;4.93;;
69534;SDS011;56754;51.568;5.048;2024-03-06T09:30:59;9.07;;;5.00;;
69534;SDS011;56754;51.568;5.048;2024-03-06T09:33:24;9.30;;;4.83;;
69534;SDS011;56754;51.568;5.048;2024-03-06T09:35:50;9.47;;;5.13;;
69534;SDS011;56754;51.568;5.048;2024-03-06T09:38:15;9.63;;;4.90;;
69534;SDS011;56754;51.568;5.048;2024-03-06T09:40:40;10.60;;;5.27;;
69534;SDS011;56754;51.568;5.048;2024-03-06T09:43:06;9.93;;;4.90;;
69534;SDS011;56754;51.568;5.048;2024-03-06T09:45:35;9.87;;;4.70;;
69534;SDS011;56754;51.568;5.048;2024-03-06T09:48:01;8.35;;;4.60;;
69534;SDS011;56754;51.568;5.048;2024-03-06T09:50:26;7.53;;;4.38;;
69534;SDS011;56754;51.568;5.048;2024-03-06T09:52:56;9.13;;;4.97;;
69534;SDS011;56754;51.568;5.048;2024-03-06T09:55:22;8.53;;;4.97;;
69534;SDS011;56754;51.568;5.048;2024-03-06T09:57:48;8.80;;;4.88;;
69534;SDS011;56754;51.568;5.048;2024-03-06T10:00:13;8.47;;;4.80;;
69534;SDS011;56754;51.568;5.048;2024-03-06T10:03:01;8.15;;;4.18;;
69534;SDS011;56754;51.568;5.048;2024-03-06T10:05:27;9.43;;;4.63;;
69534;SDS011;56754;51.568;5.048;2024-03-06T10:07:53;8.75;;;4.43;;
69534;SDS011;56754;51.568;5.048;2024-03-06T10:10:19;8.87;;;4.80;;
69534;SDS011;56754;51.568;5.048;2024-03-06T10:12:45;8.00;;;4.55;;
69534;SDS011;56754;51.568;5.048;2024-03-06T10:15:10;7.72;;;4.70;;
69534;SDS011;56754;51.568;5.048;2024-03-06T10:17:38;8.37;;;4.27;;
69534;SDS011;56754;51.568;5.048;2024-03-06T10:20:22;7.50;;;4.20;;
69534;SDS011;56754;51.568;5.048;2024-03-06T10:22:52;7.40;;;4.03;;
69534;SDS011;56754;51.568;5.048;2024-03-06T10:25:21;8.90;;;4.80;;
69534;SDS011;56754;51.568;5.048;2024-03-06T10:30:39;9.02;;;5.05;;
69534;SDS011;56754;51.568;5.048;2024-03-06T10:33:06;9.27;;;4.80;;
69534;SDS011;56754;51.568;5.048;2024-03-06T10:35:32;7.97;;;4.10;;
69534;SDS011;56754;51.568;5.048;2024-03-06T10:38:00;7.88;;;4.20;;
69534;SDS011;56754;51.568;5.048;2024-03-06T10:40:26;7.85;;;4.22;;
69534;SDS011;56754;51.568;5.048;2024-03-06T10:42:52;7.63;;;4.37;;
69534;SDS011;56754;51.568;5.048;2024-03-06T10:45:17;8.20;;;4.67;;
69534;SDS011;56754;51.568;5.048;2024-03-06T10:47:49;8.20;;;4.53;;
69534;SDS011;56754;51.568;5.048;2024-03-06T10:50:16;7.97;;;4.45;;
69534;SDS011;56754;51.568;5.048;2024-03-06T10:52:43;7.60;;;3.85;;
69534;SDS011;56754;51.568;5.048;2024-03-06T10:55:09;7.80;;;4.20;;
69534;SDS011;56754;51.568;5.048;2024-03-06T10:57:37;8.93;;;4.30;;
69534;SDS011;56754;51.568;5.048;2024-03-06T11:00:08;7.85;;;4.13;;
69534;SDS011;56754;51.568;5.048;2024-03-06T11:02:34;7.13;;;4.03;;
69534;SDS011;56754;51.568;5.048;2024-03-06T11:05:01;7.70;;;3.85;;
69534;SDS011;56754;51.568;5.048;2024-03-06T11:07:27;8.27;;;4.13;;
69534;SDS011;56754;51.568;5.048;2024-03-06T11:09:53;7.60;;;4.33;;
69534;SDS011;56754;51.568;5.048;2024-03-06T11:12:37;8.07;;;4.30;;
69534;SDS011;56754;51.568;5.048;2024-03-06T11:15:10;9.05;;;4.95;;
69534;SDS011;56754;51.568;5.048;2024-03-06T11:17:39;9.60;;;5.00;;
69534;SDS011;56754;51.568;5.048;2024-03-06T11:28:19;7.60;;;3.97;;
69534;SDS011;56754;51.568;5.048;2024-03-06T11:30:45;7.40;;;4.07;;
69534;SDS011;56754;51.568;5.048;2024-03-06T11:33:12;7.93;;;4.03;;
69534;SDS011;56754;51.568;5.048;2024-03-06T11:35:40;7.78;;;4.13;;
69534;SDS011;56754;51.568;5.048;2024-03-06T11:38:05;9.18;;;5.20;;
69534;SDS011;56754;51.568;5.048;2024-03-06T11:40:31;9.03;;;5.00;;
69534;SDS011;56754;51.568;5.048;2024-03-06T11:42:56;8.50;;;4.47;;
69534;SDS011;56754;51.568;5.048;2024-03-06T11:45:21;9.30;;;4.90;;
69534;SDS011;56754;51.568;5.048;2024-03-06T11:48:02;8.73;;;4.67;;
69534;SDS011;56754;51.568;5.048;2024-03-06T11:50:29;7.72;;;4.30;;
69534;SDS011;56754;51.568;5.048;2024-03-06T11:52:54;8.47;;;3.93;;
69534;SDS011;56754;51.568;5.048;2024-03-06T11:55:20;8.37;;;4.20;;
69534;SDS011;56754;51.568;5.048;2024-03-06T11:57:46;8.32;;;4.00;;
69534;SDS011;56754;51.568;5.048;2024-03-06T12:00:12;9.30;;;4.40;;
69534;SDS011;56754;51.568;5.048;2024-03-06T12:02:37;7.70;;;3.80;;
69534;SDS011;56754;51.568;5.048;2024-03-06T12:05:03;7.13;;;3.93;;
69534;SDS011;56754;51.568;5.048;2024-03-06T12:07:30;8.40;;;4.10;;
69534;SDS011;56754;51.568;5.048;2024-03-06T12:09:57;7.30;;;3.67;;
69534;SDS011;56754;51.568;5.048;2024-03-06T12:12:23;8.10;;;3.78;;
69534;SDS011;56754;51.568;5.048;2024-03-06T12:14:55;7.97;;;3.90;;
69534;SDS011;56754;51.568;5.048;2024-03-06T12:17:22;6.72;;;3.20;;
69534;SDS011;56754;51.568;5.048;2024-03-06T12:19:48;6.53;;;3.23;;
69534;SDS011;56754;51.568;5.048;2024-03-06T12:22:13;6.67;;;3.20;;
69534;SDS011;56754;51.568;5.048;2024-03-06T12:24:38;8.37;;;3.70;;
69534;SDS011;56754;51.568;5.048;2024-03-06T12:27:04;6.77;;;3.33;;
69534;SDS011;56754;51.568;5.048;2024-03-06T12:29:31;6.73;;;3.37;;
69534;SDS011;56754;51.568;5.048;2024-03-06T12:31:58;6.32;;;3.10;;
69534;SDS011;56754;51.568;5.048;2024-03-06T12:34:24;6.15;;;3.30;;
69534;SDS011;56754;51.568;5.048;2024-03-06T12:36:49;6.33;;;3.07;;
69534;SDS011;56754;51.568;5.048;2024-03-06T12:39:15;5.95;;;3.17;;
69534;SDS011;56754;51.568;5.048;2024-03-06T12:41:41;7.37;;;3.30;;
69534;SDS011;56754;51.568;5.048;2024-03-06T12:44:07;6.25;;;2.67;;
69534;SDS011;56754;51.568;5.048;2024-03-06T12:46:32;4.97;;;2.47;;
69534;SDS011;56754;51.568;5.048;2024-03-06T12:48:58;6.27;;;2.67;;
69534;SDS011;56754;51.568;5.048;2024-03-06T12:51:23;5.57;;;2.60;;
69534;SDS011;56754;51.568;5.048;2024-03-06T12:53:49;5.60;;;2.20;;
69534;SDS011;56754;51.568;5.048;2024-03-06T12:56:15;5.97;;;2.60;;
69534;SDS011;56754;51.568;5.048;2024-03-06T12:58:40;6.00;;;2.70;;
69534;SDS011;56754;51.568;5.048;2024-03-06T13:01:05;5.33;;;2.33;;
69534;SDS011;56754;51.568;5.048;2024-03-06T13:03:31;6.47;;;2.67;;
69534;SDS011;56754;51.568;5.048;2024-03-06T13:05:56;5.45;;;2.42;;
69534;SDS011;56754;51.568;5.048;2024-03-06T13:08:23;5.63;;;2.15;;
69534;SDS011;56754;51.568;5.048;2024-03-06T13:10:48;5.73;;;2.20;;
69534;SDS011;56754;51.568;5.048;2024-03-06T13:13:13;5.03;;;2.10;;
69534;SDS011;56754;51.568;5.048;2024-03-06T13:15:39;4.80;;;2.17;;
69534;SDS011;56754;51.568;5.048;2024-03-06T13:18:04;4.67;;;2.10;;
69534;SDS011;56754;51.568;5.048;2024-03-06T13:20:30;4.43;;;2.22;;
69534;SDS011;56754;51.568;5.048;2024-03-06T13:22:56;5.28;;;2.20;;
69534;SDS011;56754;51.568;5.048;2024-03-06T13:25:22;3.97;;;1.80;;
69534;SDS011;56754;51.568;5.048;2024-03-06T13:27:47;5.63;;;2.40;;
69534;SDS011;56754;51.568;5.048;2024-03-06T13:30:13;5.20;;;2.38;;
69534;SDS011;56754;51.568;5.048;2024-03-06T13:32:38;5.50;;;2.57;;
69534;SDS011;56754;51.568;5.048;2024-03-06T13:35:04;5.20;;;2.50;;
69534;SDS011;56754;51.568;5.048;2024-03-06T13:37:30;4.10;;;2.10;;
69534;SDS011;56754;51.568;5.048;2024-03-06T13:39:55;5.20;;;2.30;;
69534;SDS011;56754;51.568;5.048;2024-03-06T13:42:21;4.73;;;2.57;;
69534;SDS011;56754;51.568;5.048;2024-03-06T13:44:46;5.23;;;2.43;;
69534;SDS011;56754;51.568;5.048;2024-03-06T13:47:14;5.30;;;2.63;;
69534;SDS011;56754;51.568;5.048;2024-03-06T13:49:40;5.38;;;2.00;;
69534;SDS011;56754;51.568;5.048;2024-03-06T13:52:07;5.50;;;2.40;;
69534;SDS011;56754;51.568;5.048;2024-03-06T13:54:34;5.27;;;2.60;;
69534;SDS011;56754;51.568;5.048;2024-03-06T13:56:59;5.73;;;2.63;;
69534;SDS011;56754;51.568;5.048;2024-03-06T13:59:25;4.97;;;2.28;;
69534;SDS011;56754;51.568;5.048;2024-03-06T14:01:50;4.10;;;1.90;;
69534;SDS011;56754;51.568;5.048;2024-03-06T14:04:16;5.07;;;2.03;;
69534;SDS011;56754;51.568;5.048;2024-03-06T14:06:41;5.35;;;2.50;;
69534;SDS011;56754;51.568;5.048;2024-03-06T14:09:06;6.07;;;2.10;;
69534;SDS011;56754;51.568;5.048;2024-03-06T14:11:31;4.63;;;1.93;;
69534;SDS011;56754;51.568;5.048;2024-03-06T14:13:57;5.23;;;2.50;;
69534;SDS011;56754;51.568;5.048;2024-03-06T14:16:22;6.63;;;2.27;;
69534;SDS011;56754;51.568;5.048;2024-03-06T14:18:48;3.90;;;2.10;;
69534;SDS011;56754;51.568;5.048;2024-03-06T14:21:13;5.37;;;2.40;;
69534;SDS011;56754;51.568;5.048;2024-03-06T14:23:38;6.53;;;2.37;;
69534;SDS011;56754;51.568;5.048;2024-03-06T14:26:04;4.57;;;2.37;;
69534;SDS011;56754;51.568;5.048;2024-03-06T14:28:29;4.80;;;2.27;;
69534;SDS011;56754;51.568;5.048;2024-03-06T14:30:54;5.47;;;2.43;;
69534;SDS011;56754;51.568;5.048;2024-03-06T14:33:20;6.07;;;2.40;;
69534;SDS011;56754;51.568;5.048;2024-03-06T14:35:45;4.10;;;2.00;;
69534;SDS011;56754;51.568;5.048;2024-03-06T14:38:10;4.67;;;2.50;;
69534;SDS011;56754;51.568;5.048;2024-03-06T14:40:36;4.60;;;2.20;;